Latest Weather Observations for Sydney Olympic Park

IDN60901

Issued at 6:02 pm EDT Sunday 28 February 2021 (issued every 10 minutes, with the page automatically refreshed every 10 minutes)

About weather observations | Map of Sydney area stations | Latest observations for Sydney area | Other Formats
Station Details ID: 066212 Name: SYDNEY OLYMPIC PARK AWS (ARCHERY CENTRE) Lat: -33.83 Lon: 151.07 Height: 4.0 m
Data from the previous 72 hours. | See also: Recent months at Sydney Olympic Park
Date/Time
EDT
Temp
°C
App
Temp
°C
Dew
Point
°C
Rel
Hum
%
Delta-T
°C
Wind Press
QNH
hPa
Press
MSL
hPa
Rain since
9am
mm
Dir  Spd
km/h
Gust
km/h
Spd
kts
Gust
kts
28/06:00pm 25.3 25.7 19.0 68 4.0 E 15 22 8 12 - - 0.0
28/05:30pm 25.6 25.2 19.0 67 4.2 E 19 26 10 14 - - 0.0
28/05:00pm 26.0 25.8 18.4 63 4.8 E 17 24 9 13 - - 0.0
28/04:30pm 26.5 26.3 17.6 58 5.6 E 15 22 8 12 - - 0.0
28/04:00pm 26.9 26.8 17.9 57 5.7 E 15 22 8 12 - - 0.0
28/03:30pm 26.8 26.4 18.1 59 5.5 E 17 24 9 13 - - 0.0
28/03:00pm 27.3 27.9 18.6 59 5.6 E 13 24 7 13 - - 0.0
28/02:30pm 27.1 26.7 18.1 58 5.7 ESE 17 20 9 11 - - 0.0
28/02:00pm 27.1 28.0 18.4 59 5.5 E 11 17 6 9 - - 0.0
28/01:30pm 26.6 27.2 18.5 61 5.2 SE 13 20 7 11 - - 0.0
28/01:00pm 26.5 26.6 18.4 61 5.1 E 15 20 8 11 - - 0.0
28/12:30pm 26.7 28.0 19.3 64 4.8 E 11 17 6 9 - - 0.0
28/12:00pm 26.6 28.6 20.0 67 4.3 NE 9 15 5 8 - - 0.0
28/11:30am 26.2 27.8 19.1 65 4.6 ENE 9 17 5 9 - - 0.0
28/11:00am 26.0 28.6 20.1 70 3.8 NNE 6 9 3 5 - - 0.0
28/10:30am 24.6 27.1 19.9 75 3.0 SE 6 13 3 7 - - 0.0
28/10:00am 23.5 25.5 19.2 77 2.7 SSE 7 11 4 6 - - 0.0
28/09:30am 22.7 25.3 19.3 81 2.2 S 4 11 2 6 - - 0.0
28/09:00am 22.1 23.9 19.5 85 1.7 S 9 17 5 9 - - 0.8
28/08:30am 21.6 23.9 20.6 94 0.6 S 9 17 5 9 - - 0.8
28/08:00am 20.6 24.6 20.6 100 0.0 CALM 0 2 0 1 - - 0.8
28/07:31am 19.8 23.4 19.8 100 0.0 CALM 0 0 0 0 - - 0.8
28/07:30am 19.7 23.3 19.7 100 0.0 CALM 0 0 0 0 - - 0.8
28/07:00am 18.9 22.1 18.9 100 0.0 CALM 0 4 0 2 - - 0.8
28/06:30am 19.1 22.4 19.1 100 0.0 CALM 0 6 0 3 - - 0.8
28/06:00am 19.0 22.3 19.0 100 0.0 CALM 0 0 0 0 - - 0.8
28/05:30am 19.2 22.5 19.2 100 0.0 CALM 0 0 0 0 - - 0.8
28/05:00am 19.3 22.7 19.3 100 0.0 CALM 0 0 0 0 - - 0.8
28/04:30am 19.4 22.8 19.4 100 0.0 CALM 0 2 0 1 - - 0.8
28/04:00am 19.5 22.9 19.3 99 0.1 CALM 0 0 0 0 - - 0.8
28/03:49am 19.5 22.9 19.3 99 0.1 CALM 0 0 0 0 - - 0.8
28/03:30am 19.7 23.2 19.5 99 0.1 CALM 0 0 0 0 - - 0.8
28/03:25am 19.7 23.2 19.5 99 0.1 CALM 0 0 0 0 - - 0.8
28/03:17am 19.7 22.8 19.5 99 0.1 SW 2 7 1 4 - - 0.8
28/03:01am 19.9 23.5 19.7 99 0.1 CALM 0 0 0 0 - - 0.8
28/03:00am 19.9 23.5 19.7 99 0.1 CALM 0 0 0 0 - - 0.8
28/02:54am 19.9 23.5 19.7 99 0.1 CALM 0 0 0 0 - - 0.8
28/02:43am 20.1 23.8 19.9 99 0.1 CALM 0 0 0 0 - - 0.8
28/02:30am 20.2 23.9 20.0 99 0.1 CALM 0 0 0 0 - - 0.8
28/02:00am 20.7 24.5 20.2 97 0.3 CALM 0 4 0 2 - - 0.8
28/01:30am 21.1 23.8 20.6 97 0.3 N 7 13 4 7 - - 0.8
28/01:00am 21.3 24.5 20.5 95 0.5 N 4 11 2 6 - - 0.8
28/12:30am 21.5 24.4 20.7 95 0.5 N 6 9 3 5 - - 0.8
28/12:00am 21.5 25.5 20.5 94 0.6 CALM 0 0 0 0 - - 0.8
 
Date/Time
EDT
Temp
°C
App
Temp
°C
Dew
Point
°C
Rel
Hum
%
Delta-T
°C
Wind Press
QNH
hPa
Press
MSL
hPa
Rain since
9am
mm
Dir  Spd
km/h
Gust
km/h
Spd
kts
Gust
kts
27/11:30pm 21.6 25.1 20.4 93 0.8 N 2 7 1 4 - - 0.8
27/11:00pm 21.7 24.5 20.5 93 0.8 N 6 11 3 6 - - 0.8
27/10:30pm 21.9 25.1 20.4 91 1.0 N 4 13 2 7 - - 0.8
27/10:00pm 22.1 24.9 20.4 90 1.1 NNE 6 11 3 6 - - 0.8
27/09:30pm 22.2 24.8 20.5 90 1.1 NE 7 11 4 6 - - 0.8
27/09:00pm 22.1 25.0 20.7 92 0.9 NE 6 11 3 6 - - 0.8
27/08:30pm 21.8 24.3 20.3 91 1.0 NE 7 13 4 7 - - 0.8
27/08:00pm 22.1 24.2 20.2 89 1.2 NE 9 17 5 9 - - 0.8
27/07:30pm 22.5 24.4 19.7 84 1.8 NE 9 15 5 8 - - 0.8
27/07:00pm 23.1 24.9 19.5 80 2.3 NE 9 13 5 7 - - 0.8
27/06:30pm 23.6 25.7 19.3 77 2.7 NE 7 13 4 7 - - 0.8
27/06:00pm 23.9 26.2 19.4 76 2.9 NE 6 13 3 7 - - 0.8
27/05:30pm 23.8 26.0 19.7 78 2.6 ENE 7 15 4 8 - - 0.8
27/05:00pm 23.1 25.3 19.7 81 2.2 NE 7 13 4 7 - - 0.8
27/04:30pm 23.0 25.3 19.4 80 2.3 ENE 6 9 3 5 - - 0.8
27/04:00pm 23.7 25.8 19.4 77 2.7 ENE 7 13 4 7 - - 0.8
27/03:30pm 23.0 25.4 20.1 84 1.9 N 7 15 4 8 - - 0.8
27/03:00pm 22.7 25.2 19.9 84 1.8 NNE 6 11 3 6 - - 0.8
27/02:30pm 22.8 25.0 20.5 87 1.5 N 9 15 5 8 - - 0.8
27/02:00pm 22.3 24.9 20.0 87 1.5 NE 6 13 3 7 - - 0.8
27/01:30pm 22.1 25.5 21.6 97 0.3 N 6 9 3 5 - - 0.8
27/01:23pm 21.8 24.9 21.5 98 0.2 N 7 11 4 6 - - 0.8
27/01:00pm 21.2 25.0 21.0 99 0.1 E 2 6 1 3 - - 0.6
27/12:30pm 20.6 24.5 20.3 98 0.2 CALM 0 0 0 0 - - 0.2
27/12:01pm 20.7 24.1 20.2 97 0.3 E 2 6 1 3 - - 0.0
27/12:00pm 20.7 24.1 20.2 97 0.3 E 2 7 1 4 - - 0.0
27/11:50am 20.4 23.5 19.4 94 0.6 E 2 7 1 4 - - 0.0
27/11:40am 20.7 23.5 19.7 94 0.6 ESE 4 7 2 4 - - 0.0
27/11:30am 20.8 23.9 19.5 92 0.8 E 2 7 1 4 - - 0.0
27/11:00am 20.5 24.1 19.8 96 0.4 CALM 0 0 0 0 - - 0.0
27/10:30am 20.2 23.8 19.7 97 0.3 CALM 0 0 0 0 - - 0.0
27/10:09am 19.9 22.7 19.7 99 0.1 SE 4 9 2 5 - - 0.0
27/10:00am 20.0 23.6 19.8 99 0.1 CALM 0 0 0 0 - - 0.0
27/09:30am 19.8 22.6 19.6 99 0.1 SSW 4 7 2 4 - - 0.0
27/09:18am 19.9 23.5 19.7 99 0.1 CALM 0 0 0 0 - - 0.0
27/09:00am 19.9 22.4 19.1 95 0.5 WSW 4 7 2 4 - - 0.2
27/08:30am 19.9 22.1 19.1 95 0.5 SW 6 9 3 5 - - 0.2
27/08:00am 19.7 21.8 19.0 96 0.4 SW 6 9 3 5 - - 0.2
27/07:30am 19.8 23.0 18.8 94 0.6 CALM 0 0 0 0 - - 0.2
27/07:00am 19.7 22.7 18.5 93 0.7 CALM 0 0 0 0 - - 0.2
27/06:30am 19.6 22.6 18.4 93 0.7 CALM 0 6 0 3 - - 0.2
27/06:00am 19.9 21.6 18.4 91 0.9 W 7 13 4 7 - - 0.2
27/05:30am 20.1 22.9 17.9 87 1.4 CALM 0 0 0 0 - - 0.2
27/05:00am 20.4 23.0 17.4 83 1.8 CALM 0 0 0 0 - - 0.2
27/04:30am 20.9 23.4 17.3 80 2.2 CALM 0 0 0 0 - - 0.2
27/04:00am 21.1 23.4 16.7 76 2.7 CALM 0 0 0 0 - - 0.2
27/03:30am 21.3 22.8 16.7 75 2.8 E 4 11 2 6 - - 0.2
27/03:00am 21.4 22.6 16.8 75 2.8 E 6 9 3 5 - - 0.2
27/02:30am 21.4 23.3 16.6 74 2.9 E 2 7 1 4 - - 0.2
27/02:00am 21.4 22.6 16.8 75 2.8 ENE 6 13 3 7 - - 0.2
27/01:30am 21.6 21.6 16.3 72 3.2 E 11 19 6 10 - - 0.2
27/01:00am 21.5 21.7 16.7 74 2.9 ESE 11 17 6 9 - - 0.2
27/12:30am 21.5 21.6 16.5 73 3.0 ESE 11 17 6 9 - - 0.2
27/12:00am 21.7 21.8 16.4 72 3.2 E 11 17 6 9 - - 0.2
 
Date/Time
EDT
Temp
°C
App
Temp
°C
Dew
Point
°C
Rel
Hum
%
Delta-T
°C
Wind Press
QNH
hPa
Press
MSL
hPa
Rain since
9am
mm
Dir  Spd
km/h
Gust
km/h
Spd
kts
Gust
kts
26/11:30pm 21.8 21.9 16.5 72 3.2 ESE 11 20 6 11 - - 0.2
26/11:00pm 21.7 21.4 16.4 72 3.2 ESE 13 19 7 10 - - 0.2
26/10:30pm 21.8 21.2 16.7 73 3.1 ESE 15 26 8 14 - - 0.2
26/10:00pm 22.0 21.8 16.7 72 3.2 ESE 13 20 7 11 - - 0.2
26/09:30pm 22.0 21.8 16.7 72 3.2 SE 13 17 7 9 - - 0.2
26/09:00pm 22.0 21.0 16.7 72 3.2 ESE 17 28 9 15 - - 0.2
26/08:30pm 22.1 21.6 16.8 72 3.2 SE 15 24 8 13 - - 0.2
26/08:00pm 22.2 21.8 17.1 73 3.1 SE 15 24 8 13 - - 0.2
26/07:30pm 22.5 21.8 17.4 73 3.1 SE 17 26 9 14 - - 0.2
26/07:00pm 22.8 22.2 17.5 72 3.3 ESE 17 28 9 15 - - 0.2
26/06:30pm 23.2 22.3 17.7 71 3.4 ESE 19 24 10 13 - - 0.2
26/06:00pm 23.9 23.1 17.9 69 3.8 ESE 19 24 10 13 - - 0.2
26/05:30pm 24.2 23.2 17.9 68 3.9 ESE 20 33 11 18 - - 0.2
26/05:00pm 25.4 23.3 16.3 57 5.6 ESE 22 33 12 18 - - 0.2
26/04:30pm 26.0 24.7 16.8 57 5.7 ESE 19 28 10 15 - - 0.2
26/04:00pm 26.2 26.2 18.1 61 5.1 E 15 24 8 13 - - 0.2
26/03:30pm 26.4 25.8 17.5 58 5.6 E 17 28 9 15 - - 0.2
26/03:00pm 26.5 26.1 18.9 63 4.9 SE 19 28 10 15 - - 0.2
26/02:30pm 26.4 25.1 17.2 57 5.7 ESE 20 28 11 15 - - 0.2
26/02:00pm 27.1 26.5 17.6 56 6.0 ESE 17 24 9 13 - - 0.2
26/01:30pm 27.9 28.4 17.4 52 6.6 E 11 20 6 11 - - 0.2
26/01:00pm 27.3 28.3 17.8 56 6.0 ENE 9 17 5 9 - - 0.2
26/12:30pm 27.9 27.0 12.7 39 8.9 SSW 9 17 5 9 - - 0.2
26/12:00pm 27.3 26.2 12.1 39 8.8 SW 9 17 5 9 - - 0.2
26/11:30am 26.8 26.5 14.5 46 7.4 SW 9 13 5 7 - - 0.2
26/11:00am 25.7 25.7 15.1 52 6.4 SSW 9 13 5 7 - - 0.2
26/10:30am 24.8 25.5 16.2 58 5.3 WSW 7 17 4 9 - - 0.0
26/10:00am 24.0 25.7 18.6 72 3.4 SSW 7 13 4 7 - - 0.0
26/09:30am 22.4 24.9 19.0 81 2.2 WNW 4 11 2 6 - - 0.0
26/09:00am 20.4 23.8 20.2 99 0.1 NW 2 7 1 4 - - 8.2
26/08:30am 19.1 22.3 18.8 98 0.2 CALM 0 0 0 0 - - 8.2
26/08:00am 18.8 22.0 18.8 100 0.0 CALM 0 2 0 1 - - 8.2
26/07:30am 17.9 20.7 17.9 100 0.0 CALM 0 6 0 3 - - 8.2
26/07:00am 16.9 19.3 16.9 100 0.0 CALM 0 0 0 0 - - 8.2
26/06:30am 16.2 18.3 16.2 100 0.0 CALM 0 0 0 0 - - 8.2
26/06:18am 16.3 18.4 16.3 100 0.0 CALM 0 4 0 2 - - 8.2
26/06:00am 16.5 18.7 16.5 100 0.0 CALM 0 0 0 0 - - 8.2
26/05:30am 17.0 19.4 17.0 100 0.0 CALM 0 0 0 0 - - 8.2
26/05:00am 16.5 18.7 16.5 100 0.0 CALM 0 4 0 2 - - 8.2
26/04:38am 16.7 19.0 16.7 100 0.0 CALM 0 0 0 0 - - 8.2
26/04:30am 16.5 18.7 16.5 100 0.0 CALM 0 0 0 0 - - 8.2
26/04:00am 16.7 19.0 16.7 100 0.0 CALM 0 0 0 0 - - 8.2
26/03:30am 17.0 19.4 17.0 100 0.0 CALM 0 0 0 0 - - 8.2
26/03:00am 17.3 19.8 17.3 100 0.0 CALM 0 0 0 0 - - 8.2
26/02:42am 17.1 19.5 17.1 100 0.0 CALM 0 0 0 0 - - 8.2
26/02:30am 17.2 19.7 17.2 100 0.0 CALM 0 0 0 0 - - 8.2
26/02:29am 17.2 19.7 17.2 100 0.0 CALM 0 0 0 0 - - 8.2
26/02:00am 17.5 20.1 17.5 100 0.0 CALM 0 0 0 0 - - 8.2
26/01:30am 17.7 20.0 17.7 100 0.0 N 2 6 1 3 - - 8.2
26/01:00am 17.8 20.5 17.8 100 0.0 CALM 0 0 0 0 - - 8.2
26/12:30am 18.1 21.0 18.1 100 0.0 CALM 0 0 0 0 - - 8.2
26/12:00am 17.9 20.7 17.9 100 0.0 CALM 0 0 0 0 - - 8.2
 
Date/Time
EDT
Temp
°C
App
Temp
°C
Dew
Point
°C
Rel
Hum
%
Delta-T
°C
Wind Press
QNH
hPa
Press
MSL
hPa
Rain since
9am
mm
Dir  Spd
km/h
Gust
km/h
Spd
kts
Gust
kts
25/11:30pm 18.6 21.7 18.6 100 0.0 CALM 0 6 0 3 - - 8.2
25/11:00pm 18.4 21.4 18.4 100 0.0 CALM 0 0 0 0 - - 8.2
25/10:30pm 18.7 21.7 18.5 99 0.1 CALM 0 0 0 0 - - 8.2
25/10:00pm 18.9 22.0 18.7 99 0.1 CALM 0 0 0 0 - - 8.2
25/09:30pm 19.4 22.4 19.2 99 0.1 N 2 7 1 4 - - 8.2
25/09:00pm 19.9 22.7 19.7 99 0.1 WNW 4 9 2 5 - - 8.2
25/08:30pm 20.3 23.6 20.0 98 0.2 SSE 2 7 1 4 - - 8.2
25/08:00pm 20.5 24.4 20.3 99 0.1 CALM 0 7 0 4 - - 8.2
25/07:30pm 21.1 24.0 20.6 97 0.3 NNW 6 9 3 5 - - 8.2
25/07:00pm 21.7 24.8 21.0 96 0.5 NNW 6 7 3 4 - - 8.2
25/06:30pm 21.0 24.0 20.8 99 0.1 W 6 9 3 5 - - 8.2

Latest Capital City Observations: Canberra | Sydney | Melbourne | Brisbane | Adelaide | Perth | Hobart | Darwin

Other formats

Comma delimited format used in spreadsheet applications
http://www.bom.gov.au/fwo/IDN60901/IDN60901.95765.axf

JavaScript Object Notation format (JSON) in row-major order
http://www.bom.gov.au/fwo/IDN60901/IDN60901.95765.json

Data quality

Most of these data are generated automatically and are frequently updated. Quality checks on data are not normally performed. It is possible for incorrect values to appear. Refer to information at About Latest Weather Observations and please check the disclaimer before using these data.